Time,TemperatureF,DewpointF,PressureIn,WindDirection,WindDirectionDegrees,WindSpeedMPH,WindSpeedGustMPH,Humidity,HourlyPrecipIn,Conditions,Clouds,dailyrainin,SolarRadiationWatts/m^2,SoftwareType,DateUTC
2013-03-09 00:04:00,39.8,37.1,30.27,East,87,1.0,2.0,90,0.00,,,0.00,0,Wunderground v.1.15,2013-03-09 08:04:00,
2013-03-09 00:09:00,39.6,36.6,30.27,East,87,0.0,2.0,89,0.00,,,0.00,0,Wunderground v.1.15,2013-03-09 08:09:00,
2013-03-09 00:14:00,39.3,36.6,30.27,East,87,0.0,1.0,90,0.00,,,0.00,0,Wunderground v.1.15,2013-03-09 08:14:00,
2013-03-09 00:19:00,39.0,36.3,30.27,East,87,0.0,1.0,90,0.00,,,0.00,0,Wunderground v.1.15,2013-03-09 08:19:00,
2013-03-09 00:24:00,39.3,36.9,30.27,East,87,0.0,1.0,91,0.00,,,0.00,0,Wunderground v.1.15,2013-03-09 08:24:00,
2013-03-09 00:29:00,38.9,36.2,30.27,East,87,0.0,1.0,90,0.00,,,0.00,0,Wunderground v.1.15,2013-03-09 08:29:00,
2013-03-09 00:34:00,39.1,36.7,30.28,East,87,1.0,1.0,91,0.00,,,0.00,0,Wunderground v.1.15,2013-03-09 08:34:00,
2013-03-09 00:39:00,39.5,36.8,30.28,East,87,0.0,1.0,90,0.00,,,0.00,0,Wunderground v.1.15,2013-03-09 08:39:00,
2013-03-09 00:44:00,38.8,35.8,30.28,East,87,1.0,1.0,89,0.00,,,0.00,0,Wunderground v.1.15,2013-03-09 08:44:00,
2013-03-09 00:49:00,38.6,35.9,30.28,East,87,0.0,1.0,90,0.00,,,0.00,0,Wunderground v.1.15,2013-03-09 08:49:00,
2013-03-09 00:54:00,38.7,36.0,30.28,East,87,0.0,1.0,90,0.00,,,0.00,0,Wunderground v.1.15,2013-03-09 08:54:00,
2013-03-09 00:59:00,38.6,35.9,30.29,East,87,0.0,1.0,90,0.00,,,0.00,0,Wunderground v.1.15,2013-03-09 08:59:00,
2013-03-09 01:04:00,38.2,35.5,30.29,East,87,1.0,1.0,90,0.00,,,0.00,0,Wunderground v.1.15,2013-03-09 09:04:00,
2013-03-09 01:09:00,38.4,36.0,30.29,East,87,0.0,1.0,91,0.00,,,0.00,0,Wunderground v.1.15,2013-03-09 09:09:00,
2013-03-09 01:14:00,38.6,36.2,30.29,East,87,0.0,1.0,91,0.00,,,0.00,0,Wunderground v.1.15,2013-03-09 09:14:00,
2013-03-09 01:19:00,38.2,35.5,30.29,East,87,0.0,1.0,90,0.00,,,0.00,0,Wunderground v.1.15,2013-03-09 09:19:00,
2013-03-09 01:24:00,38.2,35.8,30.29,East,87,0.0,1.0,91,0.00,,,0.00,0,Wunderground v.1.15,2013-03-09 09:24:00,
2013-03-09 01:29:00,38.5,36.1,30.30,East,87,0.0,1.0,91,0.00,,,0.00,0,Wunderground v.1.15,2013-03-09 09:29:00,
2013-03-09 01:34:00,38.4,36.0,30.30,East,87,1.0,2.0,91,0.00,,,0.00,0,Wunderground v.1.15,2013-03-09 09:34:00,
2013-03-09 01:39:00,38.2,35.8,30.30,East,87,1.0,2.0,91,0.00,,,0.00,0,Wunderground v.1.15,2013-03-09 09:39:00,
2013-03-09 01:44:00,38.4,36.3,30.30,East,87,0.0,1.0,92,0.00,,,0.00,0,Wunderground v.1.15,2013-03-09 09:44:00,
2013-03-09 01:49:00,38.3,35.9,30.30,East,87,0.0,1.0,91,0.00,,,0.00,0,Wunderground v.1.15,2013-03-09 09:49:00,
2013-03-09 01:54:00,38.1,35.7,30.30,East,87,0.0,1.0,91,0.00,,,0.00,0,Wunderground v.1.15,2013-03-09 09:54:00,
2013-03-09 01:59:00,37.8,35.4,30.30,East,87,0.0,1.0,91,0.00,,,0.00,0,Wunderground v.1.15,2013-03-09 09:59:00,
2013-03-09 02:04:00,37.3,35.2,30.30,East,87,0.0,1.0,92,0.00,,,0.00,0,Wunderground v.1.15,2013-03-09 10:04:00,
2013-03-09 02:09:00,37.4,35.6,30.30,East,87,0.0,1.0,93,0.00,,,0.00,0,Wunderground v.1.15,2013-03-09 10:09:00,
2013-03-09 02:14:00,37.4,35.3,30.30,East,87,0.0,1.0,92,0.00,,,0.00,0,Wunderground v.1.15,2013-03-09 10:14:00,
2013-03-09 02:19:00,37.5,35.7,30.31,East,87,0.0,2.0,93,0.00,,,0.00,0,Wunderground v.1.15,2013-03-09 10:19:00,
2013-03-09 02:24:00,37.9,36.1,30.31,East,87,0.0,2.0,93,0.00,,,0.00,0,Wunderground v.1.15,2013-03-09 10:24:00,
2013-03-09 02:29:00,38.0,36.2,30.31,East,87,0.0,2.0,93,0.00,,,0.00,0,Wunderground v.1.15,2013-03-09 10:29:00,
2013-03-09 02:34:00,37.9,36.1,30.31,East,87,0.0,2.0,93,0.00,,,0.00,0,Wunderground v.1.15,2013-03-09 10:34:00,
2013-03-09 02:39:00,37.8,36.0,30.31,East,87,0.0,2.0,93,0.00,,,0.00,0,Wunderground v.1.15,2013-03-09 10:39:00,
2013-03-09 02:44:00,37.8,36.0,30.31,East,87,0.0,1.0,93,0.00,,,0.00,0,Wunderground v.1.15,2013-03-09 10:44:00,
2013-03-09 02:49:00,37.4,35.6,30.31,East,87,0.0,1.0,93,0.00,,,0.00,0,Wunderground v.1.15,2013-03-09 10:49:00,
2013-03-09 02:54:00,37.6,35.8,30.31,East,87,1.0,2.0,93,0.00,,,0.00,0,Wunderground v.1.15,2013-03-09 10:54:00,
2013-03-09 02:59:00,37.7,36.1,30.31,East,87,0.0,2.0,94,0.00,,,0.00,0,Wunderground v.1.15,2013-03-09 10:59:00,
2013-03-09 03:04:00,37.6,35.8,30.31,East,87,1.0,2.0,93,0.00,,,0.00,0,Wunderground v.1.15,2013-03-09 11:04:00,
2013-03-09 03:09:00,37.6,36.0,30.32,East,87,0.0,2.0,94,0.00,,,0.00,0,Wunderground v.1.15,2013-03-09 11:09:00,
2013-03-09 03:14:00,37.5,35.9,30.32,East,87,1.0,2.0,94,0.00,,,0.00,0,Wunderground v.1.15,2013-03-09 11:14:00,
2013-03-09 03:19:00,37.3,35.7,30.32,East,87,0.0,2.0,94,0.00,,,0.00,0,Wunderground v.1.15,2013-03-09 11:19:00,
2013-03-09 03:24:00,37.2,35.6,30.32,East,87,0.0,1.0,94,0.00,,,0.00,0,Wunderground v.1.15,2013-03-09 11:24:00,
2013-03-09 03:29:00,37.4,35.8,30.32,East,87,1.0,1.0,94,0.00,,,0.00,0,Wunderground v.1.15,2013-03-09 11:29:00,
2013-03-09 03:34:00,37.5,35.9,30.32,East,87,1.0,3.0,94,0.00,,,0.00,0,Wunderground v.1.15,2013-03-09 11:34:00,
2013-03-09 03:39:00,37.4,35.8,30.32,East,87,0.0,3.0,94,0.00,,,0.00,0,Wunderground v.1.15,2013-03-09 11:39:00,
2013-03-09 03:44:00,37.3,35.7,30.33,East,87,0.0,2.0,94,0.00,,,0.00,0,Wunderground v.1.15,2013-03-09 11:44:00,
2013-03-09 03:49:00,37.3,35.7,30.33,East,87,0.0,2.0,94,0.00,,,0.00,0,Wunderground v.1.15,2013-03-09 11:49:00,
2013-03-09 03:54:00,37.1,35.5,30.33,East,87,0.0,1.0,94,0.00,,,0.00,0,Wunderground v.1.15,2013-03-09 11:54:00,
2013-03-09 03:59:00,37.1,35.8,30.33,East,87,1.0,2.0,95,0.00,,,0.00,0,Wunderground v.1.15,2013-03-09 11:59:00,
2013-03-09 04:04:00,37.0,35.4,30.33,East,87,1.0,2.0,94,0.00,,,0.00,0,Wunderground v.1.15,2013-03-09 12:04:00,
2013-03-09 04:09:00,36.9,35.6,30.33,East,87,1.0,2.0,95,0.00,,,0.00,0,Wunderground v.1.15,2013-03-09 12:09:00,
2013-03-09 04:14:00,36.9,35.6,30.33,East,87,1.0,2.0,95,0.00,,,0.00,0,Wunderground v.1.15,2013-03-09 12:14:00,
2013-03-09 04:19:00,37.0,35.7,30.34,East,87,0.0,2.0,95,0.00,,,0.00,0,Wunderground v.1.15,2013-03-09 12:19:00,
2013-03-09 04:24:00,36.9,35.6,30.34,East,87,0.0,2.0,95,0.00,,,0.00,0,Wunderground v.1.15,2013-03-09 12:24:00,
2013-03-09 04:29:00,36.9,35.6,30.34,ESE,106,1.0,3.0,95,0.00,,,0.00,0,Wunderground v.1.15,2013-03-09 12:29:00,
2013-03-09 04:34:00,36.7,35.4,30.34,ESE,109,1.0,2.0,95,0.00,,,0.00,0,Wunderground v.1.15,2013-03-09 12:34:00,
2013-03-09 04:39:00,36.7,35.7,30.34,ESE,109,1.0,2.0,96,0.00,,,0.00,0,Wunderground v.1.15,2013-03-09 12:39:00,
2013-03-09 04:44:00,36.7,35.7,30.34,ESE,109,0.0,1.0,96,0.00,,,0.00,0,Wunderground v.1.15,2013-03-09 12:44:00,
2013-03-09 04:49:00,36.8,35.8,30.34,ESE,110,0.0,2.0,96,0.00,,,0.00,0,Wunderground v.1.15,2013-03-09 12:49:00,
2013-03-09 04:54:00,36.8,35.8,30.34,South,170,1.0,3.0,96,0.00,,,0.00,0,Wunderground v.1.15,2013-03-09 12:54:00,
2013-03-09 04:59:00,36.8,35.8,30.35,SSE,167,1.0,3.0,96,0.00,,,0.00,0,Wunderground v.1.15,2013-03-09 12:59:00,
2013-03-09 05:04:00,36.8,35.8,30.35,South,172,0.0,2.0,96,0.00,,,0.00,0,Wunderground v.1.15,2013-03-09 13:04:00,
2013-03-09 05:09:00,36.8,35.8,30.35,South,169,2.0,3.0,96,0.00,,,0.00,0,Wunderground v.1.15,2013-03-09 13:09:00,
2013-03-09 05:14:00,36.5,35.5,30.35,SSE,163,0.0,2.0,96,0.00,,,0.00,0,Wunderground v.1.15,2013-03-09 13:14:00,
2013-03-09 05:19:00,36.3,35.3,30.35,SSE,163,1.0,3.0,96,0.00,,,0.00,0,Wunderground v.1.15,2013-03-09 13:19:00,
2013-03-09 05:24:00,36.2,35.2,30.35,SSE,163,2.0,2.0,96,0.00,,,0.00,0,Wunderground v.1.15,2013-03-09 13:24:00,
2013-03-09 05:29:00,36.3,35.3,30.35,SSE,159,0.0,3.0,96,0.00,,,0.00,0,Wunderground v.1.15,2013-03-09 13:29:00,
2013-03-09 05:34:00,36.4,35.4,30.36,SSE,159,0.0,1.0,96,0.00,,,0.00,0,Wunderground v.1.15,2013-03-09 13:34:00,
2013-03-09 05:39:00,36.4,35.4,30.36,SSE,159,0.0,2.0,96,0.00,,,0.00,0,Wunderground v.1.15,2013-03-09 13:39:00,
2013-03-09 05:44:00,36.5,35.7,30.36,SSE,159,0.0,2.0,97,0.00,,,0.00,0,Wunderground v.1.15,2013-03-09 13:44:00,
2013-03-09 05:49:00,36.6,35.8,30.36,SSE,153,1.0,3.0,97,0.00,,,0.00,0,Wunderground v.1.15,2013-03-09 13:49:00,
2013-03-09 05:54:00,36.5,35.7,30.36,SSE,153,0.0,3.0,97,0.00,,,0.00,0,Wunderground v.1.15,2013-03-09 13:54:00,
2013-03-09 05:59:00,36.4,35.4,30.37,SSE,157,0.0,3.0,96,0.00,,,0.00,0,Wunderground v.1.15,2013-03-09 13:59:00,
2013-03-09 06:04:00,36.4,35.4,30.37,SSE,157,0.0,2.0,96,0.00,,,0.00,0,Wunderground v.1.15,2013-03-09 14:04:00,
2013-03-09 06:09:00,36.4,35.4,30.37,SSE,157,0.0,2.0,96,0.00,,,0.00,0,Wunderground v.1.15,2013-03-09 14:09:00,
2013-03-09 06:14:00,36.5,35.7,30.37,SSE,157,0.0,2.0,97,0.00,,,0.00,0,Wunderground v.1.15,2013-03-09 14:14:00,
2013-03-09 06:19:00,36.4,35.6,30.37,SSE,157,0.0,2.0,97,0.00,,,0.00,0,Wunderground v.1.15,2013-03-09 14:19:00,
2013-03-09 06:24:00,36.3,35.5,30.37,SSE,157,0.0,1.0,97,0.00,,,0.00,0,Wunderground v.1.15,2013-03-09 14:24:00,
2013-03-09 06:29:00,36.2,35.4,30.37,SSE,157,1.0,2.0,97,0.00,,,0.00,0,Wunderground v.1.15,2013-03-09 14:29:00,
2013-03-09 06:34:00,36.2,35.4,30.37,SE,142,0.0,2.0,97,0.00,,,0.00,0,Wunderground v.1.15,2013-03-09 14:34:00,
2013-03-09 06:39:00,36.1,35.3,30.37,SE,142,1.0,2.0,97,0.00,,,0.00,0,Wunderground v.1.15,2013-03-09 14:39:00,
2013-03-09 06:44:00,36.1,35.3,30.38,SE,142,0.0,2.0,97,0.00,,,0.00,0,Wunderground v.1.15,2013-03-09 14:44:00,
2013-03-09 06:49:00,36.2,35.4,30.38,SE,142,0.0,2.0,97,0.00,,,0.00,7,Wunderground v.1.15,2013-03-09 14:49:00,
2013-03-09 06:54:00,36.2,35.4,30.38,SE,142,1.0,2.0,97,0.00,,,0.00,9,Wunderground v.1.15,2013-03-09 14:54:00,
2013-03-09 06:59:00,36.1,35.3,30.38,SE,142,1.0,2.0,97,0.00,,,0.00,12,Wunderground v.1.15,2013-03-09 14:59:00,
2013-03-09 07:04:00,36.1,35.3,30.39,SE,142,0.0,1.0,97,0.00,,,0.00,16,Wunderground v.1.15,2013-03-09 15:04:00,
2013-03-09 07:09:00,36.3,35.5,30.39,SE,142,2.0,2.0,97,0.00,,,0.00,21,Wunderground v.1.15,2013-03-09 15:09:00,
2013-03-09 07:14:00,36.2,35.4,30.40,SE,146,3.0,3.0,97,0.00,,,0.00,28,Wunderground v.1.15,2013-03-09 15:14:00,
2013-03-09 07:19:00,36.1,35.3,30.40,SSE,161,1.0,3.0,97,0.00,,,0.00,32,Wunderground v.1.15,2013-03-09 15:19:00,
2013-03-09 07:24:00,36.1,35.3,30.40,SSE,161,0.0,2.0,97,0.00,,,0.00,28,Wunderground v.1.15,2013-03-09 15:24:00,
2013-03-09 07:29:00,36.1,35.3,30.41,SSE,161,2.0,2.0,97,0.00,,,0.00,30,Wunderground v.1.15,2013-03-09 15:29:00,
2013-03-09 07:34:00,36.2,35.4,30.41,SSE,161,0.0,1.0,97,0.00,,,0.00,39,Wunderground v.1.15,2013-03-09 15:34:00,
2013-03-09 07:39:00,36.2,35.4,30.41,SSE,161,0.0,2.0,97,0.00,,,0.00,49,Wunderground v.1.15,2013-03-09 15:39:00,
2013-03-09 07:44:00,36.3,35.5,30.41,SSE,161,1.0,2.0,97,0.00,,,0.00,58,Wunderground v.1.15,2013-03-09 15:44:00,
2013-03-09 07:49:00,36.5,35.7,30.41,SSE,161,2.0,2.0,97,0.00,,,0.00,49,Wunderground v.1.15,2013-03-09 15:49:00,
2013-03-09 07:54:00,36.6,35.8,30.41,SSE,157,1.0,4.0,97,0.00,,,0.00,56,Wunderground v.1.15,2013-03-09 15:54:00,
2013-03-09 07:59:00,36.7,35.9,30.41,SSE,163,2.0,4.0,97,0.00,,,0.00,76,Wunderground v.1.15,2013-03-09 15:59:00,
2013-03-09 08:04:00,37.0,36.2,30.42,SSE,157,1.0,2.0,97,0.00,,,0.00,81,Wunderground v.1.15,2013-03-09 16:04:00,
2013-03-09 08:09:00,37.1,36.3,30.42,WSW,255,3.0,5.0,97,0.00,,,0.00,69,Wunderground v.1.15,2013-03-09 16:09:00,
2013-03-09 08:14:00,36.7,35.9,30.43,WSW,252,2.0,4.0,97,0.00,,,0.00,70,Wunderground v.1.15,2013-03-09 16:14:00,
2013-03-09 08:19:00,37.0,36.2,30.43,SSW,200,1.0,4.0,97,0.00,,,0.00,102,Wunderground v.1.15,2013-03-09 16:19:00,
2013-03-09 08:24:00,37.0,36.2,30.43,SSW,204,1.0,4.0,97,0.00,,,0.00,98,Wunderground v.1.15,2013-03-09 16:24:00,
2013-03-09 08:29:00,37.1,36.3,30.43,SSW,205,0.0,4.0,97,0.00,,,0.00,90,Wunderground v.1.15,2013-03-09 16:29:00,
2013-03-09 08:34:00,37.2,36.4,30.43,SSW,200,0.0,3.0,97,0.00,,,0.00,100,Wunderground v.1.15,2013-03-09 16:34:00,
2013-03-09 08:39:00,37.4,36.6,30.43,WSW,246,2.0,3.0,97,0.00,,,0.00,102,Wunderground v.1.15,2013-03-09 16:39:00,
2013-03-09 08:44:00,37.4,36.6,30.43,WSW,246,1.0,2.0,97,0.00,,,0.00,95,Wunderground v.1.15,2013-03-09 16:44:00,
2013-03-09 08:49:00,37.6,36.8,30.43,SSE,159,2.0,5.0,97,0.00,,,0.00,107,Wunderground v.1.15,2013-03-09 16:49:00,
2013-03-09 08:54:00,37.3,36.5,30.43,SSE,159,0.0,1.0,97,0.00,,,0.00,109,Wunderground v.1.15,2013-03-09 16:54:00,
2013-03-09 08:59:00,37.6,36.8,30.43,SSE,149,3.0,4.0,97,0.00,,,0.00,113,Wunderground v.1.15,2013-03-09 16:59:00,
2013-03-09 09:04:00,37.6,36.8,30.43,ESE,119,1.0,4.0,97,0.00,,,0.00,128,Wunderground v.1.15,2013-03-09 17:04:00,
2013-03-09 09:09:00,37.7,36.9,30.43,SSE,162,1.0,4.0,97,0.00,,,0.00,130,Wunderground v.1.15,2013-03-09 17:09:00,
2013-03-09 09:14:00,38.0,37.2,30.43,SSE,162,0.0,3.0,97,0.00,,,0.00,141,Wunderground v.1.15,2013-03-09 17:14:00,
2013-03-09 09:19:00,38.0,37.2,30.44,SSE,162,1.0,3.0,97,0.00,,,0.00,156,Wunderground v.1.15,2013-03-09 17:19:00,
2013-03-09 09:24:00,38.1,37.6,30.44,SSE,162,0.0,3.0,98,0.00,,,0.00,141,Wunderground v.1.15,2013-03-09 17:24:00,
2013-03-09 09:29:00,38.6,37.8,30.44,South,171,2.0,3.0,97,0.00,,,0.00,171,Wunderground v.1.15,2013-03-09 17:29:00,
2013-03-09 09:34:00,38.3,37.8,30.44,SSE,151,0.0,3.0,98,0.00,,,0.00,174,Wunderground v.1.15,2013-03-09 17:34:00,
2013-03-09 09:39:00,38.5,37.7,30.44,SSE,159,0.0,3.0,97,0.00,,,0.00,214,Wunderground v.1.15,2013-03-09 17:39:00,
2013-03-09 09:43:00,37.9,37.1,30.44,SSE,161,1.0,2.0,97,0.00,,,0.00,197,Wunderground v.1.15,2013-03-09 17:43:00,
2013-03-09 09:48:00,39.5,39.0,30.44,SSE,163,1.0,3.0,98,0.00,,,0.00,332,Wunderground v.1.15,2013-03-09 17:48:00,
2013-03-09 09:53:00,40.1,39.6,30.44,SSW,202,0.0,3.0,98,0.00,,,0.00,387,Wunderground v.1.15,2013-03-09 17:53:00,
2013-03-09 09:58:00,40.9,40.1,30.44,SSW,209,2.0,3.0,97,0.00,,,0.00,283,Wunderground v.1.15,2013-03-09 17:58:00,
2013-03-09 10:03:00,41.8,41.0,30.44,SSW,205,1.0,3.0,97,0.00,,,0.00,434,Wunderground v.1.15,2013-03-09 18:03:00,
2013-03-09 10:08:00,43.1,41.5,30.44,SSW,209,1.0,4.0,94,0.00,,,0.00,448,Wunderground v.1.15,2013-03-09 18:08:00,
2013-03-09 10:13:00,43.5,40.8,30.44,SSW,207,2.0,3.0,90,0.00,,,0.00,461,Wunderground v.1.15,2013-03-09 18:13:00,
2013-03-09 10:18:00,44.3,40.7,30.44,WSW,238,3.0,3.0,87,0.00,,,0.00,466,Wunderground v.1.15,2013-03-09 18:18:00,
2013-03-09 10:23:00,45.1,40.6,30.43,WSW,256,3.0,3.0,84,0.00,,,0.00,471,Wunderground v.1.15,2013-03-09 18:23:00,
2013-03-09 10:28:00,45.2,40.3,30.43,SW,216,2.0,3.0,83,0.00,,,0.00,480,Wunderground v.1.15,2013-03-09 18:28:00,
2013-03-09 10:33:00,45.2,40.3,30.44,WSW,240,3.0,4.0,83,0.00,,,0.00,485,Wunderground v.1.15,2013-03-09 18:33:00,
2013-03-09 10:38:00,46.9,40.7,30.43,WSW,240,2.0,4.0,79,0.00,,,0.00,492,Wunderground v.1.15,2013-03-09 18:38:00,
2013-03-09 10:43:00,47.6,40.1,30.44,WSW,249,2.0,4.0,75,0.00,,,0.00,497,Wunderground v.1.15,2013-03-09 18:43:00,
2013-03-09 10:48:00,47.1,40.6,30.44,WSW,252,3.0,4.0,78,0.00,,,0.00,501,Wunderground v.1.15,2013-03-09 18:48:00,
2013-03-09 10:53:00,47.0,39.8,30.44,SW,228,1.0,5.0,76,0.00,,,0.00,508,Wunderground v.1.15,2013-03-09 18:53:00,
2013-03-09 10:58:00,47.9,40.4,30.44,West,264,3.0,5.0,75,0.00,,,0.00,517,Wunderground v.1.15,2013-03-09 18:58:00,
2013-03-09 11:03:00,47.3,40.1,30.44,West,272,2.0,4.0,76,0.00,,,0.00,519,Wunderground v.1.15,2013-03-09 19:03:00,
2013-03-09 11:08:00,48.6,40.0,30.44,NW,312,4.0,5.0,72,0.00,,,0.00,524,Wunderground v.1.15,2013-03-09 19:08:00,
2013-03-09 11:13:00,48.3,40.0,30.45,WSW,256,4.0,6.0,73,0.00,,,0.00,529,Wunderground v.1.15,2013-03-09 19:13:00,
2013-03-09 11:18:00,48.0,40.1,30.45,NNW,338,2.0,7.0,74,0.00,,,0.00,527,Wunderground v.1.15,2013-03-09 19:18:00,
2013-03-09 11:23:00,47.5,39.6,30.45,NNW,340,4.0,9.0,74,0.00,,,0.00,536,Wunderground v.1.15,2013-03-09 19:23:00,
2013-03-09 11:28:00,47.8,40.6,30.46,West,277,4.0,9.0,76,0.00,,,0.00,538,Wunderground v.1.15,2013-03-09 19:28:00,
2013-03-09 11:33:00,47.8,40.3,30.46,WNW,302,2.0,6.0,75,0.00,,,0.00,540,Wunderground v.1.15,2013-03-09 19:33:00,
2013-03-09 11:38:00,47.4,40.6,30.46,North,355,2.0,6.0,77,0.00,,,0.00,541,Wunderground v.1.15,2013-03-09 19:38:00,
2013-03-09 11:43:00,48.4,40.5,30.46,West,281,3.0,5.0,74,0.00,,,0.00,540,Wunderground v.1.15,2013-03-09 19:43:00,
2013-03-09 11:48:00,49.1,40.8,30.46,WNW,295,3.0,5.0,73,0.00,,,0.00,550,Wunderground v.1.15,2013-03-09 19:48:00,
2013-03-09 11:53:00,48.2,40.3,30.46,West,263,5.0,7.0,74,0.00,,,0.00,554,Wunderground v.1.15,2013-03-09 19:53:00,
2013-03-09 11:58:00,48.5,40.6,30.46,West,259,3.0,7.0,74,0.00,,,0.00,554,Wunderground v.1.15,2013-03-09 19:58:00,
2013-03-09 12:03:00,48.5,40.2,30.46,NW,313,6.0,6.0,73,0.00,,,0.00,554,Wunderground v.1.15,2013-03-09 20:03:00,
2013-03-09 12:08:00,48.1,40.2,30.46,WSW,243,4.0,7.0,74,0.00,,,0.00,555,Wunderground v.1.15,2013-03-09 20:08:00,
2013-03-09 12:13:00,48.0,40.8,30.46,West,271,5.0,7.0,76,0.00,,,0.00,557,Wunderground v.1.15,2013-03-09 20:13:00,
2013-03-09 12:18:00,48.0,40.8,30.46,West,271,5.0,7.0,76,0.00,,,0.00,557,Wunderground v.1.15,2013-03-09 20:18:00,
2013-03-09 12:23:00,-999.9,-99.9,30.46,North,32767,-999.0,5.0,255,-99.99,,,0.00,,Wunderground v.1.15,2013-03-09 20:23:00,
2013-03-09 12:28:00,-999.9,-99.9,30.46,North,32767,-999.0,5.0,255,-99.99,,,0.00,,Wunderground v.1.15,2013-03-09 20:28:00,
2013-03-09 12:33:00,-999.9,-99.9,30.45,North,32767,-999.0,-999.0,255,-99.99,,,0.00,,Wunderground v.1.15,2013-03-09 20:33:00,
2013-03-09 12:38:00,49.9,-99.9,30.45,WSW,257,3.0,3.0,255,0.00,,,0.00,,Wunderground v.1.15,2013-03-09 20:38:00,
2013-03-09 12:43:00,50.9,41.1,30.45,West,275,1.0,4.0,69,0.00,,,0.00,554,Wunderground v.1.15,2013-03-09 20:43:00,
2013-03-09 12:48:00,51.5,41.3,30.45,West,277,2.0,4.0,68,0.00,,,0.00,548,Wunderground v.1.15,2013-03-09 20:48:00,
2013-03-09 12:53:00,52.1,42.2,30.45,West,273,1.0,3.0,69,0.00,,,0.00,545,Wunderground v.1.15,2013-03-09 20:53:00,
2013-03-09 12:58:00,52.9,42.2,30.45,WSW,241,3.0,4.0,67,0.00,,,0.00,543,Wunderground v.1.15,2013-03-09 20:58:00,
2013-03-09 13:03:00,53.1,41.6,30.44,SW,223,2.0,4.0,65,0.00,,,0.00,538,Wunderground v.1.15,2013-03-09 21:03:00,
2013-03-09 13:08:00,54.3,42.0,30.45,SW,236,1.0,4.0,63,0.00,,,0.00,538,Wunderground v.1.15,2013-03-09 21:08:00,
2013-03-09 13:13:00,55.5,42.3,30.45,SW,222,1.0,3.0,61,0.00,,,0.00,534,Wunderground v.1.15,2013-03-09 21:13:00,
2013-03-09 13:18:00,54.1,40.9,30.44,WSW,251,3.0,6.0,61,0.00,,,0.00,529,Wunderground v.1.15,2013-03-09 21:18:00,
2013-03-09 13:23:00,53.4,41.5,30.44,West,269,5.0,6.0,64,0.00,,,0.00,529,Wunderground v.1.15,2013-03-09 21:23:00,
2013-03-09 13:28:00,53.1,40.4,30.44,WSW,242,5.0,6.0,62,0.00,,,0.00,524,Wunderground v.1.15,2013-03-09 21:28:00,
2013-03-09 13:33:00,52.8,39.7,30.44,West,271,2.0,6.0,61,0.00,,,0.00,522,Wunderground v.1.15,2013-03-09 21:33:00,
2013-03-09 13:38:00,52.8,39.3,30.44,West,268,4.0,7.0,60,0.00,,,0.00,515,Wunderground v.1.15,2013-03-09 21:38:00,
2013-03-09 13:43:00,53.3,39.3,30.44,West,267,5.0,6.0,59,0.00,,,0.00,512,Wunderground v.1.15,2013-03-09 21:43:00,
2013-03-09 13:48:00,53.2,39.7,30.44,WSW,250,4.0,7.0,60,0.00,,,0.00,504,Wunderground v.1.15,2013-03-09 21:48:00,
2013-03-09 13:53:00,53.4,39.9,30.44,West,260,4.0,6.0,60,0.00,,,0.00,497,Wunderground v.1.15,2013-03-09 21:53:00,
2013-03-09 13:58:00,53.5,40.8,30.44,WSW,254,3.0,6.0,62,0.00,,,0.00,492,Wunderground v.1.15,2013-03-09 21:58:00,
2013-03-09 14:03:00,53.9,39.9,30.44,WSW,257,4.0,9.0,59,0.00,,,0.00,485,Wunderground v.1.15,2013-03-09 22:03:00,
2013-03-09 14:08:00,53.9,40.3,30.44,WSW,258,5.0,9.0,60,0.00,,,0.00,478,Wunderground v.1.15,2013-03-09 22:08:00,
2013-03-09 14:13:00,54.2,40.2,30.44,West,277,6.0,6.0,59,0.00,,,0.00,469,Wunderground v.1.15,2013-03-09 22:13:00,
2013-03-09 14:18:00,53.8,39.4,30.44,West,274,2.0,7.0,58,0.00,,,0.00,462,Wunderground v.1.15,2013-03-09 22:18:00,
2013-03-09 14:23:00,54.1,40.1,30.44,West,259,3.0,6.0,59,0.00,,,0.00,454,Wunderground v.1.15,2013-03-09 22:23:00,
2013-03-09 14:28:00,54.5,39.6,30.44,WSW,243,5.0,8.0,57,0.00,,,0.00,446,Wunderground v.1.15,2013-03-09 22:28:00,
2013-03-09 14:33:00,54.5,40.0,30.44,WSW,249,5.0,6.0,58,0.00,,,0.00,441,Wunderground v.1.15,2013-03-09 22:33:00,
2013-03-09 14:38:00,54.2,40.2,30.45,West,274,5.0,7.0,59,0.00,,,0.00,429,Wunderground v.1.15,2013-03-09 22:38:00,
2013-03-09 14:43:00,53.7,39.7,30.45,West,263,4.0,6.0,59,0.00,,,0.00,422,Wunderground v.1.15,2013-03-09 22:43:00,
2013-03-09 14:48:00,53.3,40.2,30.45,WSW,258,4.0,8.0,61,0.00,,,0.00,410,Wunderground v.1.15,2013-03-09 22:48:00,
2013-03-09 14:53:00,53.1,39.1,30.45,WSW,248,3.0,6.0,59,0.00,,,0.00,399,Wunderground v.1.15,2013-03-09 22:53:00,
2013-03-09 14:58:00,53.4,39.0,30.44,WSW,249,4.0,8.0,58,0.00,,,0.00,390,Wunderground v.1.15,2013-03-09 22:58:00,
2013-03-09 15:03:00,54.2,39.3,30.44,West,260,4.0,5.0,57,0.00,,,0.00,385,Wunderground v.1.15,2013-03-09 23:03:00,
2013-03-09 15:08:00,54.4,39.0,30.44,WSW,256,5.0,6.0,56,0.00,,,0.00,373,Wunderground v.1.15,2013-03-09 23:08:00,
2013-03-09 15:13:00,54.3,38.5,30.44,West,270,4.0,6.0,55,0.00,,,0.00,362,Wunderground v.1.15,2013-03-09 23:13:00,
2013-03-09 15:18:00,54.2,38.4,30.45,WSW,244,3.0,6.0,55,0.00,,,0.00,353,Wunderground v.1.15,2013-03-09 23:18:00,
2013-03-09 15:23:00,54.3,38.5,30.44,West,262,5.0,6.0,55,0.00,,,0.00,339,Wunderground v.1.15,2013-03-09 23:23:00,
2013-03-09 15:28:00,54.4,38.6,30.44,WSW,245,4.0,6.0,55,0.00,,,0.00,329,Wunderground v.1.15,2013-03-09 23:28:00,
2013-03-09 15:33:00,54.3,38.0,30.45,WSW,247,4.0,6.0,54,0.00,,,0.00,313,Wunderground v.1.15,2013-03-09 23:33:00,
2013-03-09 15:38:00,54.3,38.0,30.45,WSW,257,3.0,7.0,54,0.00,,,0.00,304,Wunderground v.1.15,2013-03-09 23:38:00,
2013-03-09 15:43:00,54.3,38.5,30.44,West,274,4.0,5.0,55,0.00,,,0.00,297,Wunderground v.1.15,2013-03-09 23:43:00,
2013-03-09 15:48:00,54.3,38.5,30.44,WSW,246,4.0,5.0,55,0.00,,,0.00,278,Wunderground v.1.15,2013-03-09 23:48:00,
2013-03-09 15:53:00,54.2,38.4,30.45,West,261,4.0,4.0,55,0.00,,,0.00,255,Wunderground v.1.15,2013-03-09 23:53:00,
2013-03-09 15:58:00,54.2,38.8,30.45,WSW,251,1.0,6.0,56,0.00,,,0.00,241,Wunderground v.1.15,2013-03-09 23:58:00,
2013-03-09 16:03:00,54.1,38.3,30.45,West,271,1.0,5.0,55,0.00,,,0.00,241,Wunderground v.1.15,2013-03-10 00:03:00,
2013-03-09 16:08:00,54.1,38.7,30.44,WSW,254,2.0,5.0,56,0.00,,,0.00,237,Wunderground v.1.15,2013-03-10 00:08:00,
2013-03-09 16:13:00,54.0,38.2,30.45,WSW,257,2.0,5.0,55,0.00,,,0.00,213,Wunderground v.1.15,2013-03-10 00:13:00,
2013-03-09 16:18:00,54.2,38.4,30.44,WSW,254,0.0,5.0,55,0.00,,,0.00,193,Wunderground v.1.15,2013-03-10 00:18:00,
2013-03-09 16:23:00,54.0,38.2,30.45,WSW,255,3.0,4.0,55,0.00,,,0.00,171,Wunderground v.1.15,2013-03-10 00:23:00,
2013-03-09 16:28:00,53.9,38.6,30.45,WSW,258,3.0,4.0,56,0.00,,,0.00,178,Wunderground v.1.15,2013-03-10 00:28:00,
2013-03-09 16:33:00,53.7,38.4,30.45,WSW,258,1.0,2.0,56,0.00,,,0.00,171,Wunderground v.1.15,2013-03-10 00:33:00,
2013-03-09 16:38:00,53.7,38.4,30.45,WSW,258,1.0,3.0,56,0.00,,,0.00,171,Wunderground v.1.15,2013-03-10 00:38:00,
2013-03-09 16:43:00,53.8,38.5,30.45,WSW,258,2.0,2.0,56,0.00,,,0.00,113,Wunderground v.1.15,2013-03-10 00:43:00,
2013-03-09 16:48:00,53.8,38.5,30.45,WSW,258,2.0,3.0,56,0.00,,,0.00,116,Wunderground v.1.15,2013-03-10 00:48:00,
2013-03-09 16:53:00,53.7,38.4,30.45,WSW,258,1.0,3.0,56,0.00,,,0.00,88,Wunderground v.1.15,2013-03-10 00:53:00,
2013-03-09 16:58:00,53.5,38.2,30.45,WSW,257,2.0,3.0,56,0.00,,,0.00,67,Wunderground v.1.15,2013-03-10 00:58:00,
2013-03-09 17:03:00,53.6,38.3,30.45,WSW,257,2.0,3.0,56,0.00,,,0.00,63,Wunderground v.1.15,2013-03-10 01:03:00,
2013-03-09 17:08:00,53.4,38.5,30.45,WSW,257,2.0,3.0,57,0.00,,,0.00,58,Wunderground v.1.15,2013-03-10 01:08:00,
2013-03-09 17:13:00,53.3,38.4,30.45,WSW,257,1.0,3.0,57,0.00,,,0.00,51,Wunderground v.1.15,2013-03-10 01:13:00,
2013-03-09 17:18:00,53.5,38.6,30.45,WSW,257,1.0,3.0,57,0.00,,,0.00,46,Wunderground v.1.15,2013-03-10 01:18:00,
2013-03-09 17:23:00,53.3,38.4,30.45,WSW,257,0.0,2.0,57,0.00,,,0.00,42,Wunderground v.1.15,2013-03-10 01:23:00,
2013-03-09 17:28:00,53.4,38.5,30.45,WSW,257,0.0,2.0,57,0.00,,,0.00,44,Wunderground v.1.15,2013-03-10 01:28:00,
2013-03-09 17:33:00,53.4,38.5,30.45,WSW,257,0.0,1.0,57,0.00,,,0.00,33,Wunderground v.1.15,2013-03-10 01:33:00,
2013-03-09 17:38:00,53.1,38.7,30.45,WSW,257,0.0,1.0,58,0.00,,,0.00,30,Wunderground v.1.15,2013-03-10 01:38:00,
2013-03-09 17:43:00,52.9,38.5,30.46,WSW,257,0.0,1.0,58,0.00,,,0.00,25,Wunderground v.1.15,2013-03-10 01:43:00,
2013-03-09 17:48:00,52.7,38.8,30.46,WSW,257,0.0,1.0,59,0.00,,,0.00,18,Wunderground v.1.15,2013-03-10 01:48:00,
2013-03-09 17:53:00,52.2,38.7,30.46,WSW,257,0.0,1.0,60,0.00,,,0.00,12,Wunderground v.1.15,2013-03-10 01:53:00,
2013-03-09 17:58:00,51.8,38.8,30.46,WSW,257,0.0,1.0,61,0.00,,,0.00,9,Wunderground v.1.15,2013-03-10 01:58:00,
2013-03-09 18:03:00,51.7,38.7,30.46,WSW,257,1.0,1.0,61,0.00,,,0.00,0,Wunderground v.1.15,2013-03-10 02:03:00,
2013-03-09 18:08:00,51.5,38.5,30.46,WSW,257,0.0,2.0,61,0.00,,,0.00,0,Wunderground v.1.15,2013-03-10 02:08:00,
2013-03-09 18:13:00,51.2,38.6,30.46,WSW,257,0.0,1.0,62,0.00,,,0.00,0,Wunderground v.1.15,2013-03-10 02:13:00,
2013-03-09 18:18:00,50.9,38.3,30.47,WSW,255,0.0,2.0,62,0.00,,,0.00,0,Wunderground v.1.15,2013-03-10 02:18:00,
2013-03-09 18:23:00,50.7,38.6,30.46,WSW,255,0.0,1.0,63,0.00,,,0.00,0,Wunderground v.1.15,2013-03-10 02:23:00,
2013-03-09 18:28:00,50.5,39.2,30.47,WSW,255,0.0,1.0,65,0.00,,,0.00,0,Wunderground v.1.15,2013-03-10 02:28:00,
2013-03-09 18:33:00,50.5,39.2,30.47,WSW,255,0.0,2.0,65,0.00,,,0.00,0,Wunderground v.1.15,2013-03-10 02:33:00,
2013-03-09 18:38:00,50.4,39.1,30.47,WSW,251,0.0,2.0,65,0.00,,,0.00,0,Wunderground v.1.15,2013-03-10 02:38:00,
2013-03-09 18:43:00,50.1,39.2,30.47,WSW,250,0.0,0.0,66,0.00,,,0.00,0,Wunderground v.1.15,2013-03-10 02:43:00,
2013-03-09 18:48:00,49.7,39.2,30.47,SW,220,1.0,3.0,67,0.00,,,0.00,0,Wunderground v.1.15,2013-03-10 02:48:00,
2013-03-09 18:53:00,49.5,39.4,30.47,SW,214,0.0,3.0,68,0.00,,,0.00,0,Wunderground v.1.15,2013-03-10 02:53:00,
2013-03-09 18:58:00,49.2,39.5,30.47,SSW,205,0.0,3.0,69,0.00,,,0.00,0,Wunderground v.1.15,2013-03-10 02:58:00,
2013-03-09 19:03:00,48.8,39.1,30.47,SSW,205,0.0,1.0,69,0.00,,,0.00,0,Wunderground v.1.15,2013-03-10 03:03:00,
2013-03-09 19:08:00,49.1,39.4,30.48,SSW,205,0.0,1.0,69,0.00,,,0.00,0,Wunderground v.1.15,2013-03-10 03:08:00,
2013-03-09 19:13:00,48.5,39.5,30.48,SSW,205,0.0,1.0,71,0.00,,,0.00,0,Wunderground v.1.15,2013-03-10 03:13:00,
2013-03-09 19:18:00,48.5,39.5,30.48,SSW,205,0.0,1.0,71,0.00,,,0.00,0,Wunderground v.1.15,2013-03-10 03:18:00,
2013-03-09 19:23:00,48.3,39.3,30.48,SSW,205,1.0,2.0,71,0.00,,,0.00,0,Wunderground v.1.15,2013-03-10 03:23:00,
2013-03-09 19:28:00,48.2,39.2,30.48,SSW,205,0.0,2.0,71,0.00,,,0.00,0,Wunderground v.1.15,2013-03-10 03:28:00,
2013-03-09 19:33:00,48.6,39.3,30.48,SSW,205,0.0,2.0,70,0.00,,,0.00,0,Wunderground v.1.15,2013-03-10 03:33:00,
2013-03-09 19:38:00,48.4,39.4,30.49,SSW,205,0.0,2.0,71,0.00,,,0.00,0,Wunderground v.1.15,2013-03-10 03:38:00,
2013-03-09 19:43:00,48.1,39.1,30.49,SSW,205,0.0,1.0,71,0.00,,,0.00,0,Wunderground v.1.15,2013-03-10 03:43:00,
2013-03-09 19:48:00,47.9,39.3,30.49,SSW,205,0.0,1.0,72,0.00,,,0.00,0,Wunderground v.1.15,2013-03-10 03:48:00,
2013-03-09 19:53:00,47.6,39.0,30.49,SSW,205,0.0,1.0,72,0.00,,,0.00,0,Wunderground v.1.15,2013-03-10 03:53:00,
2013-03-09 19:58:00,47.3,38.7,30.49,SSW,205,0.0,1.0,72,0.00,,,0.00,0,Wunderground v.1.15,2013-03-10 03:58:00,
2013-03-09 20:03:00,47.0,38.8,30.49,SSW,205,0.0,0.0,73,0.00,,,0.00,0,Wunderground v.1.15,2013-03-10 04:03:00,
2013-03-09 20:08:00,46.7,39.2,30.49,WSW,253,2.0,3.0,75,0.00,,,0.00,0,Wunderground v.1.15,2013-03-10 04:08:00,
2013-03-09 20:13:00,46.6,40.4,30.49,NNE,20,3.0,6.0,79,0.00,,,0.00,0,Wunderground v.1.15,2013-03-10 04:13:00,
2013-03-09 20:18:00,46.7,40.5,30.50,NNE,19,0.0,6.0,79,0.00,,,0.00,0,Wunderground v.1.15,2013-03-10 04:18:00,
2013-03-09 20:23:00,46.4,40.6,30.50,NNW,344,2.0,3.0,80,0.00,,,0.00,0,Wunderground v.1.15,2013-03-10 04:23:00,
2013-03-09 20:28:00,46.2,41.3,30.50,NNW,343,0.0,3.0,83,0.00,,,0.00,0,Wunderground v.1.15,2013-03-10 04:28:00,
2013-03-09 20:33:00,46.1,40.6,30.50,NNW,343,0.0,2.0,81,0.00,,,0.00,0,Wunderground v.1.15,2013-03-10 04:33:00,
2013-03-09 20:38:00,45.8,40.3,30.50,NNW,343,0.0,2.0,81,0.00,,,0.00,0,Wunderground v.1.15,2013-03-10 04:38:00,
2013-03-09 20:43:00,45.7,39.9,30.50,NNW,343,1.0,2.0,80,0.00,,,0.00,0,Wunderground v.1.15,2013-03-10 04:43:00,
2013-03-09 20:48:00,45.8,39.7,30.50,NNW,343,0.0,2.0,79,0.00,,,0.00,0,Wunderground v.1.15,2013-03-10 04:48:00,
2013-03-09 20:53:00,45.8,39.7,30.50,NNW,343,1.0,1.0,79,0.00,,,0.00,0,Wunderground v.1.15,2013-03-10 04:53:00,
2013-03-09 20:58:00,45.2,39.4,30.50,NNW,343,0.0,1.0,80,0.00,,,0.00,0,Wunderground v.1.15,2013-03-10 04:58:00,
2013-03-09 21:00:00,45.0,39.5,30.50,NNW,343,1.0,2.0,81,0.00,,,0.00,0,Wunderground v.1.15,2013-03-10 05:00:00,
2013-03-09 21:05:00,44.5,39.0,30.50,NNW,343,0.0,0.0,81,0.00,,,0.00,0,Wunderground v.1.15,2013-03-10 05:05:00,
2013-03-09 21:10:00,44.2,39.1,30.50,NNW,343,1.0,1.0,82,0.00,,,0.00,0,Wunderground v.1.15,2013-03-10 05:10:00,
2013-03-09 21:15:00,44.0,39.2,30.50,NNW,343,0.0,1.0,83,0.00,,,0.00,0,Wunderground v.1.15,2013-03-10 05:15:00,
2013-03-09 21:20:00,44.1,39.3,30.50,NNW,343,0.0,0.0,83,0.00,,,0.00,0,Wunderground v.1.15,2013-03-10 05:20:00,
2013-03-09 21:25:00,44.0,39.2,30.51,NNW,347,1.0,2.0,83,0.00,,,0.00,0,Wunderground v.1.15,2013-03-10 05:25:00,
2013-03-09 21:30:00,44.3,39.5,30.51,NNE,18,0.0,1.0,83,0.00,,,0.00,0,Wunderground v.1.15,2013-03-10 05:30:00,
2013-03-09 21:35:00,44.3,39.5,30.51,NNE,18,0.0,2.0,83,0.00,,,0.00,0,Wunderground v.1.15,2013-03-10 05:35:00,
2013-03-09 21:40:00,44.3,39.5,30.51,NNE,18,1.0,1.0,83,0.00,,,0.00,0,Wunderground v.1.15,2013-03-10 05:40:00,
2013-03-09 21:45:00,44.4,39.6,30.51,NNE,19,1.0,2.0,83,0.00,,,0.00,0,Wunderground v.1.15,2013-03-10 05:45:00,
2013-03-09 21:50:00,44.0,39.2,30.51,NNE,19,0.0,1.0,83,0.00,,,0.00,0,Wunderground v.1.15,2013-03-10 05:50:00,
2013-03-09 21:55:00,44.0,39.2,30.51,NNE,20,1.0,2.0,83,0.00,,,0.00,0,Wunderground v.1.15,2013-03-10 05:55:00,
2013-03-09 22:00:00,44.1,39.3,30.51,NNE,21,1.0,1.0,83,0.00,,,0.00,0,Wunderground v.1.15,2013-03-10 06:00:00,
2013-03-09 22:05:00,43.9,39.1,30.51,NNE,22,0.0,2.0,83,0.00,,,0.00,0,Wunderground v.1.15,2013-03-10 06:05:00,
2013-03-09 22:10:00,43.2,38.7,30.51,NNE,22,0.0,0.0,84,0.00,,,0.00,0,Wunderground v.1.15,2013-03-10 06:10:00,
2013-03-09 22:15:00,42.9,38.7,30.51,NNE,22,0.0,1.0,85,0.00,,,0.00,0,Wunderground v.1.15,2013-03-10 06:15:00,
2013-03-09 22:20:00,42.5,38.3,30.51,NNE,22,0.0,0.0,85,0.00,,,0.00,0,Wunderground v.1.15,2013-03-10 06:20:00,
2013-03-09 22:25:00,42.4,38.5,30.51,NNE,22,0.0,0.0,86,0.00,,,0.00,0,Wunderground v.1.15,2013-03-10 06:25:00,
2013-03-09 22:30:00,42.4,38.5,30.51,NNE,22,0.0,0.0,86,0.00,,,0.00,0,Wunderground v.1.15,2013-03-10 06:30:00,
2013-03-09 22:35:00,42.7,38.5,30.51,NNE,22,0.0,0.0,85,0.00,,,0.00,0,Wunderground v.1.15,2013-03-10 06:35:00,
2013-03-09 22:40:00,42.4,38.2,30.51,NNE,22,0.0,0.0,85,0.00,,,0.00,0,Wunderground v.1.15,2013-03-10 06:40:00,
2013-03-09 22:45:00,42.3,38.4,30.51,NNE,22,0.0,1.0,86,0.00,,,0.00,0,Wunderground v.1.15,2013-03-10 06:45:00,
2013-03-09 22:50:00,42.4,38.5,30.51,NNE,22,0.0,0.0,86,0.00,,,0.00,0,Wunderground v.1.15,2013-03-10 06:50:00,
2013-03-09 22:55:00,42.9,38.4,30.51,NNE,22,1.0,2.0,84,0.00,,,0.00,0,Wunderground v.1.15,2013-03-10 06:55:00,
2013-03-09 23:00:00,43.1,38.6,30.51,NE,50,1.0,1.0,84,0.00,,,0.00,0,Wunderground v.1.15,2013-03-10 07:00:00,
2013-03-09 23:05:00,43.1,38.6,30.51,NE,50,0.0,2.0,84,0.00,,,0.00,0,Wunderground v.1.15,2013-03-10 07:05:00,
2013-03-09 23:10:00,43.1,38.3,30.51,NE,50,0.0,0.0,83,0.00,,,0.00,0,Wunderground v.1.15,2013-03-10 07:10:00,
2013-03-09 23:15:00,42.8,38.3,30.51,NE,50,0.0,1.0,84,0.00,,,0.00,0,Wunderground v.1.15,2013-03-10 07:15:00,
2013-03-09 23:20:00,42.9,38.4,30.51,NE,50,0.0,0.0,84,0.00,,,0.00,0,Wunderground v.1.15,2013-03-10 07:20:00,
2013-03-09 23:25:00,43.0,38.2,30.51,NE,50,0.0,1.0,83,0.00,,,0.00,0,Wunderground v.1.15,2013-03-10 07:25:00,
2013-03-09 23:30:00,42.5,38.3,30.51,NE,50,0.0,0.0,85,0.00,,,0.00,0,Wunderground v.1.15,2013-03-10 07:30:00,
2013-03-09 23:35:00,42.2,38.0,30.51,NE,50,0.0,2.0,85,0.00,,,0.00,0,Wunderground v.1.15,2013-03-10 07:35:00,
2013-03-09 23:40:00,42.3,38.4,30.51,NE,50,0.0,2.0,86,0.00,,,0.00,0,Wunderground v.1.15,2013-03-10 07:40:00,
2013-03-09 23:45:00,42.4,38.2,30.51,NE,50,0.0,2.0,85,0.00,,,0.00,0,Wunderground v.1.15,2013-03-10 07:45:00,
2013-03-09 23:50:00,42.3,38.1,30.51,NE,50,0.0,2.0,85,0.00,,,0.00,0,Wunderground v.1.15,2013-03-10 07:50:00,
2013-03-09 23:55:00,42.4,38.2,30.51,NE,50,0.0,1.0,85,0.00,,,0.00,0,Wunderground v.1.15,2013-03-10 07:55:00,